Meteo Giornale » Osservazioni meteo Italia » Cervia

ore: 15:55 - Osservazioni Meteo Cervia
Lat. 44° 13' N Lon. 12° 18' E Alt. 6 metri s.l.m.

sereno Europe/Rome

23 °C

Sereno

Temp. 24 Ore

11 °C

25 °C

Sud-Est

24 Km/h

Dew point 14 °C

Umidità 56 %

Visibilità  10 Km

Il sole sorge alle ore 06:08

Il sole tramonta alle ore 20:08

Data e Ora Cielo e Fenomeni T °C DP °C Um. % Pres. hPa Vis. km Vento km/h
Oggi h: 15:55 sereno Sereno 23 14 56 1014 10 SE 24
Oggi h: 14:55 poco_nuvoloso Poco Nuvoloso 24 15 57 1014 10 E/SE 24
Oggi h: 13:55 poco_nuvoloso Poco Nuvoloso 25 16 57 1015 10 E 18.5
Oggi h: 12:55 sereno Sereno 24 12 47 1015 10 E 7.4
Oggi h: 11:55 sereno Sereno 23 14 56 1016 10 NO 7.4
Oggi h: 10:55 sereno Sereno 23 12 49 1016 10 N 3.7
Oggi h: 09:55 sereno Sereno 20 12 59 1016 10 N 0
Oggi h: 08:55 poco_nuvoloso Poco Nuvoloso 18 14 77 1016 10 N 0
Oggi h: 07:55 poco_nuvoloso Poco Nuvoloso 14 10 76 1016 10 N 5.5
Oggi h: 06:55 sereno Sereno 11 11 100 1016 10 N 3.7
Oggi h: 05:55 sereno Sereno 11 11 100 1015 10 N 0
Oggi h: 04:55 sereno Sereno 12 11 93 1015 10 N 0
Oggi h: 03:55 sereno Sereno 12 12 100 1015 10 N 0
Oggi h: 02:55 sereno Sereno 14 12 87 1015 10 N 3.7
Oggi h: 01:55 sereno Sereno 15 13 87 1016 10 N 5.5
Oggi h: 00:55 sereno Sereno 15 13 87 1016 10 N 3.7
Ieri h: 23:55 sereno Sereno 15 15 100 1016 10 N 5.5
Ieri h: 22:55 sereno Sereno 15 14 93 1016 10 N 0
Ieri h: 21:55 sereno Sereno 17 15 88 1016 10 N 1.8
Ieri h: 20:55 sereno Sereno 18 15 82 1016 10 SE 7.4
Ieri h: 19:55 sereno Sereno 20 15 72 1015 10 SE 9.3
Ieri h: 18:55 sereno Sereno 22 16 68 1016 10 SE 11.1